Time;durP1;ratioP1;P1;durP2;ratioP2;P2;SDS_P1;SDS_P2;PMS_P1;PMS_P2;Temp;Humidity;BMP_temperature;BMP_pressure;BME280_temperature;BME280_humidity;BME280_pressure;Samples;Min_cycle;Max_cycle;Signal;HPM_P1;HPM_P2
2022/04/23 00:00:55;;;;;;;3.88;3.67;;;;;;;8.06;89.83;100003.06;6086329;23;20238;-69
2022/04/23 00:03:22;;;;;;;5.15;4.95;;;;;;;8.10;90.76;99994.19;6086967;23;20533;-68
2022/04/23 00:05:48;;;;;;;4.20;4.00;;;;;;;7.83;91.24;99947.66;6117272;23;20070;-69
2022/04/23 00:08:15;;;;;;;4.38;4.18;;;;;;;8.21;89.64;99993.59;6057538;23;20054;-68
2022/04/23 00:10:41;;;;;;;4.38;4.18;;;;;;;7.82;89.61;99929.47;6114285;23;20569;-69
2022/04/23 00:13:09;;;;;;;4.40;4.20;;;;;;;8.27;88.36;99995.88;6090272;23;20080;-68
2022/04/23 00:15:39;;;;;;;3.88;3.78;;;;;;;8.33;88.02;99993.75;6109500;23;20153;-68
2022/04/23 00:18:09;;;;;;;4.10;3.90;;;;;;;8.23;86.20;99974.28;6083215;23;20337;-68
2022/04/23 00:20:37;;;;;;;5.20;4.90;;;;;;;8.34;86.63;99995.47;6115035;23;20456;-68
2022/04/23 00:23:05;;;;;;;4.30;4.10;;;;;;;8.36;87.65;100001.47;6088340;23;20060;-69
2022/04/23 00:25:32;;;;;;;5.57;5.35;;;;;;;8.04;88.15;99937.84;6093947;23;20384;-68
2022/04/23 00:27:58;;;;;;;4.43;4.22;;;;;;;8.19;88.01;99967.53;6120671;23;20017;-68
2022/04/23 00:30:25;;;;;;;5.85;5.55;;;;;;;8.09;88.18;99963.72;6109238;23;20084;-69
2022/04/23 00:32:51;;;;;;;3.88;3.75;;;;;;;8.19;88.34;100001.50;6086006;23;20026;-68
2022/04/23 00:35:18;;;;;;;5.10;4.85;;;;;;;8.06;89.24;99998.72;6114962;23;20241;-68
2022/04/23 00:37:45;;;;;;;3.75;3.65;;;;;;;7.70;89.09;99978.81;6088261;23;20045;-69
2022/04/23 00:40:18;;;;;;;4.28;4.00;;;;;;;7.59;89.54;99975.91;6093092;23;20096;-68
2022/04/23 00:42:51;;;;;;;4.32;4.13;;;;;;;7.44;89.60;99956.66;6082890;23;20014;-68
2022/04/23 00:45:27;;;;;;;4.28;4.10;;;;;;;7.62;90.64;100003.63;6109338;23;20239;-69
2022/04/23 00:47:54;;;;;;;3.95;3.80;;;;;;;7.57;90.62;99996.03;6101725;23;20026;-68
2022/04/23 00:50:22;;;;;;;6.00;5.70;;;;;;;7.31;91.09;99966.88;6106782;23;20378;-68
2022/04/23 00:52:50;;;;;;;3.80;3.70;;;;;;;7.33;91.33;99958.97;6105083;23;20025;-68
2022/04/23 00:55:18;;;;;;;4.28;4.07;;;;;;;7.46;90.96;99987.91;6093773;23;20033;-68
2022/04/23 00:57:45;;;;;;;4.00;3.80;;;;;;;7.39;91.57;99988.19;6113545;23;20025;-68
2022/04/23 01:00:12;;;;;;;4.10;3.90;;;;;;;7.38;91.98;99990.91;6094272;23;20041;-67
2022/04/23 01:02:39;;;;;;;4.20;4.00;;;;;;;7.32;92.51;99989.44;6107977;23;20235;-67
2022/04/23 01:05:09;;;;;;;3.67;3.58;;;;;;;7.20;92.87;99969.19;6116285;23;20402;-69
2022/04/23 01:07:42;;;;;;;4.30;4.10;;;;;;;7.33;92.43;99992.91;6093413;23;20276;-68
2022/04/23 01:10:10;;;;;;;3.90;3.70;;;;;;;7.12;92.38;99968.72;6100281;23;20417;-68
2022/04/23 01:12:38;;;;;;;4.95;4.75;;;;;;;7.29;93.21;99996.59;6098774;23;20081;-67
2022/04/23 01:15:11;;;;;;;3.70;3.60;;;;;;;7.07;93.63;99957.66;6101255;23;20052;-68
2022/04/23 01:17:38;;;;;;;4.00;3.80;;;;;;;7.27;93.97;99993.19;6094693;23;20063;-68
2022/04/23 01:20:12;;;;;;;4.40;4.20;;;;;;;7.14;94.40;99982.53;6100651;23;20037;-68
2022/04/23 01:22:41;;;;;;;4.10;3.90;;;;;;;7.18;94.85;99986.69;6105475;23;20025;-68
2022/04/23 01:25:12;;;;;;;3.67;3.58;;;;;;;7.27;96.54;99994.03;6081186;23;20051;-68
2022/04/23 01:27:40;;;;;;;4.70;4.43;;;;;;;7.23;96.16;99994.28;6076764;23;20034;-68
2022/04/23 01:30:08;;;;;;;3.78;3.58;;;;;;;6.98;96.93;99951.97;6107765;23;20511;-68
2022/04/23 01:32:34;;;;;;;4.90;4.70;;;;;;;6.92;96.62;99954.88;6052901;23;20056;-68
2022/04/23 01:35:01;;;;;;;3.88;3.70;;;;;;;6.96;96.66;99973.84;6112683;23;20085;-68
2022/04/23 01:37:28;;;;;;;6.05;5.72;;;;;;;6.96;98.75;99960.81;6071372;23;20085;-68
2022/04/23 01:39:54;;;;;;;4.22;4.03;;;;;;;7.18;99.28;99992.75;6115555;23;20097;-68
2022/04/23 01:42:20;;;;;;;5.25;5.05;;;;;;;7.17;99.68;100001.47;6083627;23;20024;-68
2022/04/23 01:44:48;;;;;;;4.80;4.50;;;;;;;7.19;99.19;99994.41;6106238;23;20013;-69
2022/04/23 01:47:15;;;;;;;4.28;4.05;;;;;;;7.24;100.00;100009.03;6083694;23;20425;-68
2022/04/23 01:49:42;;;;;;;4.07;3.92;;;;;;;7.22;100.00;100009.09;6101817;23;20238;-68
2022/04/23 01:52:10;;;;;;;3.63;3.53;;;;;;;7.04;100.00;99983.91;6079384;23;20276;-68
2022/04/23 01:54:36;;;;;;;4.57;4.38;;;;;;;7.12;100.00;99992.22;6107853;23;20096;-68
2022/04/23 01:57:04;;;;;;;4.20;4.00;;;;;;;7.06;99.79;99987.28;6079030;23;20017;-69
2022/04/23 01:59:31;;;;;;;6.18;5.88;;;;;;;6.99;99.66;99984.13;6099365;23;20335;-69
2022/04/23 02:01:58;;;;;;;4.00;3.80;;;;;;;7.12;100.00;100002.66;6082760;23;20400;-69
2022/04/23 02:04:25;;;;;;;4.93;4.72;;;;;;;6.81;100.00;99970.22;6080664;23;20017;-68
2022/04/23 02:06:53;;;;;;;4.00;3.80;;;;;;;7.11;100.00;100007.00;6086386;23;20382;-68
2022/04/23 02:09:19;;;;;;;5.25;5.05;;;;;;;7.08;100.00;100011.53;6106453;23;20513;-68
2022/04/23 02:11:45;;;;;;;4.10;3.90;;;;;;;6.86;100.00;99985.66;6081949;23;20085;-68
2022/04/23 02:14:13;;;;;;;3.53;3.42;;;;;;;7.08;100.00;100011.53;6117646;23;20300;-68
2022/04/23 02:16:40;;;;;;;3.72;3.63;;;;;;;7.04;100.00;99983.91;6083382;23;20095;-68
2022/04/23 02:19:06;;;;;;;4.07;3.88;;;;;;;7.19;100.00;99998.78;6091985;23;20046;-68
2022/04/23 02:21:33;;;;;;;4.63;4.43;;;;;;;7.06;100.00;99975.09;6114678;23;20025;-69
2022/04/23 02:24:01;;;;;;;4.20;4.00;;;;;;;6.92;100.00;99954.06;6100447;23;20080;-68
2022/04/23 02:26:28;;;;;;;5.13;4.93;;;;;;;6.99;100.00;99961.47;6104170;23;20108;-68
2022/04/23 02:28:54;;;;;;;3.63;3.53;;;;;;;7.23;100.00;99991.66;6091579;23;20249;-68
2022/04/23 02:31:21;;;;;;;6.28;5.93;;;;;;;7.23;100.00;99997.72;6098208;23;20038;-67
2022/04/23 02:33:47;;;;;;;4.63;4.43;;;;;;;7.19;100.00;99997.03;6121874;23;20469;-68
2022/04/23 02:36:15;;;;;;;4.22;4.03;;;;;;;5.21;100.00;99696.41;6102168;23;20080;-68
2022/04/23 02:38:41;;;;;;;4.43;4.03;;;;;;;6.94;100.00;99967.88;6109657;23;20021;-68
2022/04/23 02:41:08;;;;;;;4.00;3.80;;;;;;;7.12;100.00;99992.22;6099837;23;20272;-68
2022/04/23 02:43:36;;;;;;;3.67;3.58;;;;;;;7.15;100.00;99997.25;6095645;23;20029;-68
2022/04/23 02:46:02;;;;;;;3.40;3.30;;;;;;;6.99;100.00;99987.56;6116600;23;20029;-69
2022/04/23 02:48:29;;;;;;;6.05;5.75;;;;;;;7.08;100.00;99996.72;6108634;23;20005;-68
2022/04/23 02:50:56;;;;;;;3.42;3.33;;;;;;;7.08;100.00;99996.72;6119908;23;20034;-68
2022/04/23 02:53:22;;;;;;;5.40;5.20;;;;;;;7.07;100.00;99999.41;6111731;23;20095;-68
2022/04/23 02:55:50;;;;;;;3.83;3.60;;;;;;;7.02;100.00;99991.81;6111212;23;20046;-68
2022/04/23 02:58:17;;;;;;;4.88;4.43;;;;;;;6.82;100.00;99986.72;6102825;23;20101;-68
2022/04/23 03:00:44;;;;;;;4.30;4.10;;;;;;;6.81;100.00;99993.69;6112246;23;20312;-69
2022/04/23 03:03:12;;;;;;;4.53;4.18;;;;;;;6.82;100.00;99992.78;6107498;23;20089;-69
2022/04/23 03:05:42;;;;;;;4.03;3.72;;;;;;;6.77;100.00;99987.75;6108587;23;20249;-68
2022/04/23 03:08:11;;;;;;;3.60;3.50;;;;;;;6.41;100.00;99926.94;6109200;23;20039;-68
2022/04/23 03:10:41;;;;;;;3.88;3.67;;;;;;;6.24;100.00;99901.72;6109329;23;20028;-69
2022/04/23 03:13:08;;;;;;;3.60;3.50;;;;;;;6.77;100.00;99992.13;6111432;23;20029;-69
2022/04/23 03:15:36;;;;;;;4.53;4.32;;;;;;;6.44;100.00;99938.09;6101349;23;20100;-69
2022/04/23 03:18:10;;;;;;;3.85;3.72;;;;;;;6.79;100.00;99995.50;6092108;23;20021;-69
2022/04/23 03:20:38;;;;;;;5.78;5.35;;;;;;;6.74;100.00;100000.97;6113714;23;20461;-70
2022/04/23 03:23:05;;;;;;;3.70;3.60;;;;;;;6.57;100.00;99974.84;6117093;23;20037;-69
2022/04/23 03:25:32;;;;;;;5.50;5.25;;;;;;;6.72;100.00;99997.59;6095750;23;20041;-69
2022/04/23 03:28:00;;;;;;;3.55;3.45;;;;;;;6.71;100.00;99995.03;6115113;23;20076;-69
2022/04/23 03:30:27;;;;;;;6.25;5.95;;;;;;;6.70;100.00;99994.19;6080797;23;20021;-69
2022/04/23 03:32:54;;;;;;;3.75;3.60;;;;;;;6.70;100.00;99996.81;6118323;23;20096;-68
2022/04/23 03:35:21;;;;;;;4.63;4.43;;;;;;;6.71;100.00;99993.25;6124722;23;20500;-68
2022/04/23 03:37:48;;;;;;;3.70;3.60;;;;;;;6.67;100.00;99981.28;6110825;23;20332;-70
2022/04/23 03:40:22;;;;;;;5.32;5.13;;;;;;;6.62;100.00;99980.69;6084596;23;20547;-67
2022/04/23 03:42:49;;;;;;;4.30;4.00;;;;;;;6.33;100.00;99933.34;6100479;23;20021;-68
2022/04/23 03:45:18;;;;;;;4.53;4.32;;;;;;;6.49;100.00;99966.53;6107565;23;20022;-68
2022/04/23 03:47:47;;;;;;;4.85;4.65;;;;;;;6.67;100.00;99985.66;6094566;23;20032;-69
2022/04/23 03:50:15;;;;;;;3.78;3.63;;;;;;;6.75;100.00;99981.78;6108287;23;20080;-68
2022/04/23 03:52:41;;;;;;;4.22;4.03;;;;;;;6.70;100.00;99986.38;6102030;23;20020;-69
2022/04/23 03:55:08;;;;;;;3.50;3.40;;;;;;;6.65;100.00;100013.59;6099487;23;20058;-68
2022/04/23 03:57:51;;;;;;;5.10;4.90;;;;;;;6.61;100.00;99985.97;6097225;23;20005;-68
2022/04/23 04:00:22;;;;;;;5.35;5.15;;;;;;;6.54;100.00;99967.16;6112873;23;20105;-68
2022/04/23 04:02:50;;;;;;;4.22;4.03;;;;;;;6.62;100.00;99983.28;6114292;23;20075;-68
2022/04/23 04:05:17;;;;;;;4.28;4.10;;;;;;;5.49;100.00;99809.63;6106428;23;20026;-68
2022/04/23 04:07:45;;;;;;;4.28;4.07;;;;;;;6.58;100.00;99968.72;6101324;23;20100;-68
2022/04/23 04:10:15;;;;;;;3.40;3.30;;;;;;;6.59;100.00;99973.88;6101615;23;20036;-68
2022/04/23 04:12:41;;;;;;;4.20;4.00;;;;;;;6.60;100.00;99972.09;6110841;23;21281;-68
2022/04/23 04:15:10;;;;;;;4.05;3.85;;;;;;;6.51;100.00;99962.94;6092903;23;20018;-68
2022/04/23 04:17:37;;;;;;;4.63;4.32;;;;;;;6.57;100.00;99964.41;6108189;23;20078;-68
2022/04/23 04:20:08;;;;;;;4.05;3.85;;;;;;;6.38;100.00;99938.38;6096004;23;20099;-68
2022/04/23 04:22:35;;;;;;;4.88;4.57;;;;;;;6.64;100.00;99976.25;6105991;23;20109;-68
2022/04/23 04:25:02;;;;;;;4.78;4.38;;;;;;;6.64;100.00;99963.22;6113165;23;20072;-68
2022/04/23 04:27:29;;;;;;;6.32;5.93;;;;;;;6.64;100.00;99965.81;6105098;23;20033;-68
2022/04/23 04:29:55;;;;;;;3.65;3.55;;;;;;;6.42;100.00;99931.25;6078452;23;20221;-68
2022/04/23 04:32:22;;;;;;;6.30;5.88;;;;;;;6.61;100.00;99960.72;6100498;23;20021;-68
2022/04/23 04:34:48;;;;;;;4.13;3.88;;;;;;;6.64;100.00;99970.19;6118895;23;20086;-68
2022/04/23 04:37:15;;;;;;;4.00;3.80;;;;;;;6.41;100.00;99932.16;6099606;23;20097;-68
2022/04/23 04:39:43;;;;;;;3.78;3.65;;;;;;;6.62;100.00;99967.66;6103971;23;20533;-67
2022/04/23 04:42:11;;;;;;;4.10;3.90;;;;;;;6.65;100.00;99964.88;6109632;23;20040;-67
2022/04/23 04:44:38;;;;;;;4.43;4.22;;;;;;;6.70;100.00;99970.72;6111649;23;20182;-68
2022/04/23 04:47:06;;;;;;;3.92;3.78;;;;;;;6.26;100.00;99872.03;6111416;23;20433;-67
2022/04/23 04:49:32;;;;;;;5.05;4.85;;;;;;;6.92;100.00;99928.81;6107990;23;20091;-67
2022/04/23 04:51:58;;;;;;;4.22;4.03;;;;;;;7.38;100.00;99963.03;6110343;23;20017;-67
2022/04/23 04:54:25;;;;;;;4.95;4.75;;;;;;;7.56;100.00;99966.47;6092571;23;20025;-67
2022/04/23 04:56:53;;;;;;;4.40;4.20;;;;;;;7.61;98.66;99947.13;6111070;23;20018;-69
2022/04/23 04:59:22;;;;;;;4.88;4.68;;;;;;;7.73;96.73;99936.03;6108575;23;20036;-69
2022/04/23 05:01:50;;;;;;;4.78;4.57;;;;;;;7.97;94.97;99939.94;6101529;23;20892;-68
2022/04/23 05:04:17;;;;;;;5.10;4.88;;;;;;;8.28;92.87;99963.56;6110529;23;20039;-69
2022/04/23 05:06:44;;;;;;;4.38;4.18;;;;;;;8.45;91.53;99963.53;6083201;23;20246;-69
2022/04/23 05:09:10;;;;;;;4.72;4.53;;;;;;;8.64;91.20;99971.22;6103014;23;20017;-69
2022/04/23 05:11:37;;;;;;;4.50;4.30;;;;;;;8.62;89.14;99941.69;6109669;23;20097;-69
2022/04/23 05:14:04;;;;;;;4.30;4.10;;;;;;;9.07;88.09;99971.38;6112429;23;20077;-68
2022/04/23 05:16:30;;;;;;;5.70;5.43;;;;;;;9.18;86.43;99949.81;6108997;23;20562;-69
2022/04/23 05:18:57;;;;;;;4.40;4.20;;;;;;;9.45;85.73;99968.31;6118914;23;20037;-69
2022/04/23 05:21:23;;;;;;;5.22;5.03;;;;;;;9.42;84.96;99947.53;6095462;23;20029;-67
2022/04/23 05:23:49;;;;;;;4.57;4.38;;;;;;;9.67;83.60;99972.25;6099220;23;20016;-68
2022/04/23 05:26:16;;;;;;;4.45;4.22;;;;;;;9.58;83.82;99942.19;6081922;23;20014;-67
2022/04/23 05:28:42;;;;;;;4.95;4.75;;;;;;;9.97;82.17;99967.78;6101344;23;20024;-68
2022/04/23 05:31:09;;;;;;;4.82;4.53;;;;;;;9.87;83.35;99957.97;6085776;23;20714;-68
2022/04/23 05:33:36;;;;;;;5.43;5.13;;;;;;;9.83;82.86;99965.16;6067288;23;20089;-67
2022/04/23 05:36:05;;;;;;;4.20;4.00;;;;;;;9.64;83.42;99931.38;6074871;23;20101;-68
2022/04/23 05:38:34;;;;;;;5.85;5.55;;;;;;;9.80;83.56;99960.09;6104467;23;20037;-67
2022/04/23 05:41:01;;;;;;;4.93;4.63;;;;;;;10.04;84.35;99968.22;6080332;23;20474;-67
2022/04/23 05:43:28;;;;;;;7.03;6.63;;;;;;;10.18;83.43;99970.88;6106882;23;20501;-67
2022/04/23 05:45:57;;;;;;;4.07;3.88;;;;;;;10.16;82.95;99959.63;6085668;23;20026;-67
2022/04/23 05:48:24;;;;;;;6.32;5.95;;;;;;;10.36;82.27;99944.44;6115981;23;20027;-67
2022/04/23 05:50:52;;;;;;;4.80;4.60;;;;;;;10.45;82.46;99961.38;6083377;23;20029;-69
2022/04/23 05:53:18;;;;;;;5.30;5.00;;;;;;;10.11;83.62;99958.22;6110094;23;20021;-69
2022/04/23 05:55:45;;;;;;;4.68;4.47;;;;;;;9.90;84.94;99956.00;6075575;23;20475;-70
2022/04/23 05:58:12;;;;;;;4.78;4.57;;;;;;;9.90;84.44;99955.13;6100778;23;20041;-70
2022/04/23 06:00:38;;;;;;;4.70;4.50;;;;;;;9.71;86.01;99948.41;6076640;23;20081;-69
2022/04/23 06:03:05;;;;;;;4.60;4.40;;;;;;;10.11;86.72;99973.97;6106857;23;20358;-69
2022/04/23 06:05:31;;;;;;;6.18;5.88;;;;;;;10.09;87.06;99973.22;6078066;23;20032;-69
2022/04/23 06:07:58;;;;;;;4.93;4.72;;;;;;;10.17;86.98;99966.53;6123869;23;20024;-69
2022/04/23 06:10:24;;;;;;;5.90;5.63;;;;;;;10.36;85.39;99961.03;6081498;23;20061;-69
2022/04/23 06:12:51;;;;;;;4.30;4.10;;;;;;;10.21;85.94;99954.09;6080005;23;20024;-69
2022/04/23 06:15:17;;;;;;;5.10;4.85;;;;;;;9.46;85.26;99809.38;6113836;23;20081;-70
2022/04/23 06:17:45;;;;;;;4.10;3.90;;;;;;;10.29;84.87;99938.72;6079732;23;20022;-69
2022/04/23 06:20:12;;;;;;;4.07;3.88;;;;;;;10.46;83.77;99939.44;6111700;23;20096;-69
2022/04/23 06:22:38;;;;;;;4.60;4.40;;;;;;;10.76;82.22;99968.97;6082069;23;20599;-69
2022/04/23 06:25:06;;;;;;;4.40;4.20;;;;;;;10.74;82.46;99963.00;6051475;23;20249;-69
2022/04/23 06:27:32;;;;;;;5.68;5.38;;;;;;;10.80;81.41;99966.13;6057034;23;20037;-68
2022/04/23 06:29:59;;;;;;;4.78;4.57;;;;;;;10.90;82.18;99970.69;6076850;23;20033;-68
2022/04/23 06:32:25;;;;;;;6.63;6.22;;;;;;;10.92;80.38;99967.97;6072913;23;20037;-68
2022/04/23 06:34:52;;;;;;;5.15;4.85;;;;;;;10.77;80.69;99943.56;6072731;23;20037;-68
2022/04/23 06:37:18;;;;;;;4.75;4.55;;;;;;;10.81;80.06;99938.97;6071784;23;20039;-68
2022/04/23 06:39:45;;;;;;;5.35;5.05;;;;;;;10.84;79.11;99959.75;6083805;23;20022;-68
2022/04/23 06:42:12;;;;;;;4.50;4.30;;;;;;;10.23;81.27;99825.50;6079348;23;20541;-79
2022/04/23 06:44:38;;;;;;;4.70;4.50;;;;;;;11.17;79.84;99961.94;6076719;23;20014;-75
2022/04/23 06:47:06;;;;;;;6.50;4.47;;;;;;;11.42;79.94;99971.63;6086670;23;20101;-75
2022/04/23 06:49:32;;;;;;;5.93;5.63;;;;;;;11.21;78.57;99931.09;6076325;23;20341;-74
2022/04/23 06:51:58;;;;;;;5.10;4.90;;;;;;;11.36;78.35;99949.25;6084117;23;20026;-73
2022/04/23 06:54:25;;;;;;;6.05;5.75;;;;;;;11.51;78.09;99943.94;6061106;23;20031;-73
2022/04/23 06:56:52;;;;;;;5.75;5.40;;;;;;;11.70;76.17;99964.53;6076849;23;20200;-74
2022/04/23 06:59:18;;;;;;;6.53;6.13;;;;;;;11.53;75.68;99897.34;6084132;23;20581;-71
2022/04/23 07:01:45;;;;;;;4.68;4.47;;;;;;;11.93;74.43;99944.56;6057959;23;20053;-72
2022/04/23 07:04:11;;;;;;;4.57;4.38;;;;;;;11.98;75.71;99964.31;6093293;23;20021;-72
2022/04/23 07:06:38;;;;;;;5.10;4.90;;;;;;;12.10;73.83;99946.00;6049429;23;20034;-74
2022/04/23 07:09:05;;;;;;;4.50;4.30;;;;;;;12.36;72.15;99958.13;6079194;23;20026;-75
2022/04/23 07:11:32;;;;;;;6.70;6.10;;;;;;;12.36;70.99;99968.66;6050590;23;20431;-74
2022/04/23 07:13:58;;;;;;;5.13;4.93;;;;;;;12.47;71.66;99964.41;6081473;23;20066;-74
2022/04/23 07:16:25;;;;;;;6.13;5.82;;;;;;;12.23;70.91;99888.09;6075707;23;20033;-75
2022/04/23 07:18:52;;;;;;;4.93;4.70;;;;;;;12.76;71.64;99959.69;6079759;23;20507;-74
2022/04/23 07:21:20;;;;;;;6.38;5.88;;;;;;;12.56;69.51;99934.81;6053275;23;20034;-74
2022/04/23 07:26:34;;;;;;;7.20;6.85;;;;;;;13.13;68.27;99957.81;6082392;23;20029;-71
2022/04/23 07:29:02;;;;;;;5.25;4.80;;;;;;;12.61;66.24;99864.25;6085308;23;20067;-73
2022/04/23 07:31:29;;;;;;;7.38;6.93;;;;;;;13.07;65.33;99962.69;6073842;23;20021;-71
2022/04/23 07:39:26;;;;;;;6.53;6.22;;;;;;;13.59;63.86;99927.16;6082933;23;20019;-74
2022/04/23 07:41:54;;;;;;;5.28;5.00;;;;;;;13.68;63.79;99925.59;6087835;23;20021;-72
2022/04/23 07:44:22;;;;;;;6.30;5.90;;;;;;;13.45;62.43;99867.59;6075341;23;20032;-72
2022/04/23 07:46:49;;;;;;;5.82;5.20;;;;;;;13.59;62.22;99928.94;6088927;23;20084;-72
2022/04/23 07:49:17;;;;;;;4.75;4.55;;;;;;;13.98;62.59;99945.28;6086294;23;20353;-74
2022/04/23 07:51:46;;;;;;;5.50;5.20;;;;;;;13.74;61.24;99882.94;6081675;23;20084;-74
2022/04/23 07:54:14;;;;;;;5.07;4.75;;;;;;;13.64;60.63;99845.06;6086392;23;20025;-73
2022/04/23 07:56:41;;;;;;;5.70;5.35;;;;;;;13.46;60.25;99831.53;6065948;23;20179;-73
2022/04/23 07:59:08;;;;;;;5.20;5.00;;;;;;;14.20;60.77;99941.78;6100431;23;20096;-73
2022/04/23 08:01:35;;;;;;;5.75;5.45;;;;;;;13.99;60.04;99884.44;6078969;23;20618;-73
2022/04/23 08:04:03;;;;;;;5.55;5.25;;;;;;;14.46;59.06;99931.78;6080853;23;20032;-73
2022/04/23 08:06:31;;;;;;;7.57;6.93;;;;;;;14.42;59.93;99920.59;6082919;23;20026;-72
2022/04/23 08:08:57;;;;;;;4.90;4.70;;;;;;;14.36;60.23;99910.53;6083107;23;20018;-73
2022/04/23 08:11:24;;;;;;;5.55;5.25;;;;;;;14.68;58.79;99931.72;6085863;23;20097;-72
2022/04/23 08:13:51;;;;;;;5.40;5.20;;;;;;;14.75;58.87;99926.78;6053273;23;20173;-74
2022/04/23 08:16:17;;;;;;;6.35;6.05;;;;;;;14.07;58.82;99791.50;6084227;23;20093;-73
2022/04/23 08:18:44;;;;;;;5.40;5.10;;;;;;;13.64;58.94;99750.16;6083732;23;20331;-73
2022/04/23 08:21:12;;;;;;;5.88;5.57;;;;;;;14.94;57.61;99904.97;6088282;23;20018;-74
2022/04/23 08:23:39;;;;;;;5.75;5.28;;;;;;;15.09;58.05;99916.88;6084192;23;20221;-72
2022/04/23 08:26:06;;;;;;;5.20;5.00;;;;;;;15.18;56.83;99922.41;6083035;23;20042;-73
2022/04/23 08:31:17;;;;;;;5.68;5.38;;;;;;;15.09;56.40;99906.31;6075500;23;20026;-74
2022/04/23 08:33:59;;;;;;;5.82;5.43;;;;;;;15.25;57.44;99887.34;6084516;23;20055;-75
2022/04/23 08:36:27;;;;;;;6.65;6.25;;;;;;;15.28;56.48;99859.84;6077762;23;20052;-72
2022/04/23 08:38:56;;;;;;;4.97;4.78;;;;;;;15.62;55.88;99910.69;6091994;23;20081;-76
2022/04/23 08:41:31;;;;;;;6.40;6.00;;;;;;;15.87;55.54;99921.81;6061845;23;20049;-75
2022/04/23 08:44:06;;;;;;;5.72;5.43;;;;;;;16.04;55.88;99941.53;6089906;23;20439;-74
2022/04/23 08:46:35;;;;;;;5.78;5.47;;;;;;;15.91;54.27;99934.63;6096913;23;20018;-73
2022/04/23 08:49:09;;;;;;;5.70;5.40;;;;;;;14.58;54.05;99687.88;6081492;23;20122;-72
2022/04/23 08:51:38;;;;;;;5.50;5.20;;;;;;;16.24;53.47;99931.84;6084090;23;20063;-73
2022/04/23 08:54:13;;;;;;;5.50;5.20;;;;;;;16.05;53.42;99917.56;6083653;23;20064;-73
2022/04/23 08:56:41;;;;;;;6.15;5.75;;;;;;;16.16;52.08;99935.16;6077816;23;20085;-76
2022/04/23 08:59:11;;;;;;;5.05;4.85;;;;;;;16.44;53.30;99938.03;6096511;23;20085;-73
2022/04/23 09:01:44;;;;;;;5.85;5.55;;;;;;;16.01;51.50;99852.63;6084991;23;20073;-75
2022/04/23 09:04:12;;;;;;;5.13;4.93;;;;;;;16.47;51.57;99935.06;6100778;23;20029;-72
2022/04/23 09:06:43;;;;;;;6.00;5.70;;;;;;;16.32;50.85;99921.41;6084065;23;20041;-75
2022/04/23 09:09:15;;;;;;;4.97;4.78;;;;;;;16.23;53.22;99930.16;6082521;23;20375;-72
2022/04/23 09:11:49;;;;;;;5.50;5.20;;;;;;;16.55;51.96;99922.81;6092062;23;20026;-73
2022/04/23 09:14:25;;;;;;;6.07;5.68;;;;;;;16.94;50.26;99938.78;6081920;23;20049;-73
2022/04/23 09:25:17;;;;;;;6.25;5.85;;;;;;;16.81;50.50;99889.66;6101939;23;20568;-76
2022/04/23 09:27:43;;;;;;;5.57;5.28;;;;;;;16.74;49.02;99873.47;6094272;23;20435;-73
2022/04/23 09:30:12;;;;;;;5.53;5.22;;;;;;;17.15;50.00;99928.00;6110718;23;20166;-74
2022/04/23 09:33:00;;;;;;;6.32;5.82;;;;;;;16.91;50.07;99919.66;6089622;23;20022;-73
2022/04/23 09:35:27;;;;;;;7.03;6.63;;;;;;;16.89;51.69;99933.03;6108373;23;20022;-73
2022/04/23 09:38:11;;;;;;;5.43;5.20;;;;;;;16.67;50.21;99907.63;6083906;23;20020;-73
2022/04/23 09:40:38;;;;;;;5.75;5.45;;;;;;;17.35;50.56;99925.34;6108953;23;20041;-73
2022/04/23 09:43:06;;;;;;;5.72;5.43;;;;;;;17.06;50.57;99922.72;6116438;23;20052;-75
2022/04/23 09:45:34;;;;;;;7.07;6.68;;;;;;;16.70;51.48;99885.34;6114556;23;20013;-73
2022/04/23 09:48:03;;;;;;;5.72;5.32;;;;;;;16.71;51.22;99924.09;6115202;23;20013;-76
2022/04/23 09:50:37;;;;;;;7.43;6.88;;;;;;;16.99;50.00;99918.97;6109154;23;20107;-75
2022/04/23 09:53:33;;;;;;;6.28;5.82;;;;;;;16.82;50.04;99913.41;6115111;23;20045;-68
2022/04/23 09:56:01;;;;;;;5.45;4.93;;;;;;;16.82;50.86;99931.94;6085230;23;20025;-67
2022/04/23 09:58:33;;;;;;;7.10;6.72;;;;;;;16.33;52.19;99910.66;6106207;23;20018;-68
2022/04/23 10:01:00;;;;;;;5.97;5.57;;;;;;;16.18;51.83;99896.16;6098785;23;20493;-70
2022/04/23 10:03:31;;;;;;;6.20;5.90;;;;;;;16.68;50.03;99919.91;6095380;23;20387;-68
2022/04/23 10:06:00;;;;;;;5.82;5.53;;;;;;;16.83;49.30;99915.06;6103873;23;20052;-68
2022/04/23 10:08:29;;;;;;;7.13;6.63;;;;;;;17.14;48.33;99922.88;6091214;23;20021;-68
2022/04/23 10:11:12;;;;;;;5.32;5.03;;;;;;;17.34;46.98;99915.72;6109289;23;20009;-71
2022/04/23 10:13:44;;;;;;;5.82;5.28;;;;;;;17.37;47.38;99893.38;6105763;23;21254;-69
2022/04/23 10:16:12;;;;;;;5.82;5.53;;;;;;;17.58;46.19;99896.66;6110907;23;20031;-68
2022/04/23 10:18:39;;;;;;;5.30;5.00;;;;;;;17.37;45.79;99859.72;5968689;23;20049;-71
2022/04/23 10:21:08;;;;;;;6.72;6.25;;;;;;;17.62;46.84;99903.34;6109465;23;20390;-70
2022/04/23 10:24:18;;;;;;;5.22;5.03;;;;;;;16.71;46.90;99758.00;6108609;23;20014;-72
2022/04/23 10:26:55;;;;;;;5.40;5.10;;;;;;;17.68;46.54;99904.56;6102927;23;20029;-70
2022/04/23 10:29:23;;;;;;;7.07;6.68;;;;;;;17.31;46.75;99900.06;6103851;23;20044;-65
2022/04/23 10:32:10;;;;;;;5.40;5.20;;;;;;;17.66;46.61;99912.69;6083618;23;20190;-71
2022/04/23 10:34:38;;;;;;;6.32;5.95;;;;;;;17.49;46.71;99916.09;6093345;23;20520;-70
2022/04/23 10:37:21;;;;;;;5.00;4.80;;;;;;;17.74;45.06;99909.31;6117141;23;20080;-70
2022/04/23 10:39:50;;;;;;;5.50;5.20;;;;;;;17.55;45.89;99926.94;6094280;23;20013;-70
2022/04/23 10:42:18;;;;;;;5.93;5.63;;;;;;;17.43;47.42;99914.84;6110206;23;20025;-71
2022/04/23 10:44:46;;;;;;;5.63;5.32;;;;;;;16.82;48.44;99891.34;6110168;23;20253;-70
2022/04/23 10:47:12;;;;;;;5.88;5.45;;;;;;;16.94;48.77;99906.97;6112386;23;20025;-70
2022/04/23 10:49:39;;;;;;;5.80;5.50;;;;;;;16.95;51.27;99884.78;6100439;23;20018;-70
2022/04/23 10:52:06;;;;;;;5.55;5.25;;;;;;;17.20;47.07;99876.38;6110988;23;20025;-70
2022/04/23 10:54:42;;;;;;;6.97;6.57;;;;;;;17.94;45.89;99908.28;6105641;23;20468;-70
2022/04/23 10:57:13;;;;;;;5.55;5.25;;;;;;;18.03;45.13;99898.59;6113994;23;20316;-70
2022/04/23 10:59:45;;;;;;;6.00;5.60;;;;;;;17.98;45.04;99886.72;6073495;23;20568;-70
2022/04/23 11:02:21;;;;;;;5.78;5.45;;;;;;;18.00;44.45;99906.00;6109543;23;20246;-70
2022/04/23 11:13:31;;;;;;;7.32;6.88;;;;;;;17.69;45.68;99903.59;6092921;23;20242;-70
2022/04/23 11:16:18;;;;;;;7.35;5.97;;;;;;;17.35;45.16;99874.94;6113776;23;20021;-70
2022/04/23 11:18:46;;;;;;;5.93;5.38;;;;;;;17.55;46.45;99895.13;6106881;23;20170;-73
2022/04/23 11:21:23;;;;;;;5.90;5.60;;;;;;;17.66;46.14;99891.47;6116553;23;20009;-71
2022/04/23 11:23:51;;;;;;;5.45;5.03;;;;;;;18.06;44.63;99889.47;6115666;23;20021;-70
2022/04/23 11:26:22;;;;;;;6.30;5.97;;;;;;;18.14;45.32;99866.53;6082878;23;20018;-71
2022/04/23 11:28:57;;;;;;;5.63;5.32;;;;;;;18.29;43.45;99884.59;6113118;23;20023;-70
2022/04/23 11:31:25;;;;;;;6.72;6.43;;;;;;;17.42;42.10;99732.81;6109441;23;20505;-69
2022/04/23 11:33:59;;;;;;;5.68;5.28;;;;;;;18.02;42.78;99853.59;6103326;23;20012;-72
2022/04/23 11:36:27;;;;;;;7.10;6.70;;;;;;;18.19;43.63;99886.47;6078014;23;20469;-70
2022/04/23 11:38:58;;;;;;;5.90;5.40;;;;;;;18.18;41.80;99859.09;6098660;23;20262;-70
2022/04/23 11:41:39;;;;;;;7.60;7.00;;;;;;;18.28;43.15;99870.50;6103281;23;20114;-71
2022/04/23 11:44:46;;;;;;;5.75;5.45;;;;;;;18.62;42.12;99868.97;6104576;23;20025;-70
2022/04/23 11:47:13;;;;;;;5.80;5.30;;;;;;;18.63;43.19;99866.16;6101263;23;20029;-70
2022/04/23 11:49:39;;;;;;;6.47;6.07;;;;;;;17.74;43.74;99742.97;6088496;23;20353;-71
2022/04/23 11:52:08;;;;;;;5.93;5.63;;;;;;;18.84;42.67;99871.22;6113572;23;20402;-71
2022/04/23 11:54:43;;;;;;;6.22;5.82;;;;;;;18.02;43.68;99878.34;6082857;23;20033;-70
2022/04/23 11:57:17;;;;;;;5.45;5.15;;;;;;;17.50;44.26;99825.75;6107112;23;20095;-73
2022/04/23 11:59:46;;;;;;;5.90;5.60;;;;;;;18.14;44.15;99873.63;6131511;23;20032;-73
2022/04/23 12:02:19;;;;;;;6.28;5.97;;;;;;;18.33;44.71;99862.88;6082566;23;20025;-73
2022/04/23 12:04:48;;;;;;;5.95;5.57;;;;;;;18.94;43.27;99871.09;6108095;23;20041;-73
2022/04/23 12:07:16;;;;;;;5.80;5.50;;;;;;;18.69;42.54;99865.56;6093400;23;20096;-73
2022/04/23 12:09:56;;;;;;;5.40;5.10;;;;;;;18.72;44.80;99872.38;6080411;23;20009;-72